createdAt,value
2018-09-03T00:02:00.706Z,1.77
2018-09-03T00:04:28.822Z,2.00
2018-09-03T00:06:56.922Z,1.70
2018-09-03T00:09:25.379Z,1.80
2018-09-03T00:11:53.437Z,1.70
2018-09-03T00:14:21.497Z,1.80
2018-09-03T00:16:49.618Z,1.80
2018-09-03T00:19:17.698Z,2.27
2018-09-03T00:21:46.045Z,1.90
2018-09-03T00:24:14.154Z,1.70
2018-09-03T00:26:42.234Z,2.10
2018-09-03T00:29:10.293Z,1.90
2018-09-03T00:31:43.811Z,1.87
2018-09-03T00:34:17.342Z,1.80
2018-09-03T00:36:50.891Z,2.00
2018-09-03T00:39:24.446Z,1.83
2018-09-03T00:41:57.900Z,2.10
2018-09-03T00:44:31.363Z,1.80
2018-09-03T00:47:01.594Z,2.00
2018-09-03T00:49:30.696Z,1.90
2018-09-03T00:51:58.782Z,1.80
2018-09-03T00:54:26.897Z,1.83
2018-09-03T00:56:54.956Z,1.80
2018-09-03T00:59:23.107Z,2.00
2018-09-03T01:01:51.182Z,2.03
2018-09-03T01:04:19.322Z,1.90
2018-09-03T01:06:47.879Z,1.87
2018-09-03T01:09:15.930Z,1.93
2018-09-03T01:11:44.082Z,1.57
2018-09-03T01:14:12.164Z,2.07
2018-09-03T01:16:40.226Z,2.07
2018-09-03T01:19:08.382Z,1.80
2018-09-03T01:21:36.435Z,2.33
2018-09-03T01:24:04.506Z,1.90
2018-09-03T01:26:32.654Z,1.80
2018-09-03T01:29:00.754Z,2.00
2018-09-03T01:31:28.836Z,2.40
2018-09-03T01:33:56.894Z,1.90
2018-09-03T01:36:25.026Z,1.80
2018-09-03T01:38:53.142Z,2.00
2018-09-03T01:41:22.142Z,1.93
2018-09-03T01:43:50.211Z,2.37
2018-09-03T01:46:18.314Z,1.60
2018-09-03T01:48:46.370Z,1.87
2018-09-03T01:51:14.478Z,1.90
2018-09-03T01:53:42.621Z,2.30
2018-09-03T01:56:10.686Z,1.90
2018-09-03T01:58:38.779Z,2.23
2018-09-03T02:01:06.854Z,2.40
2018-09-03T02:03:34.942Z,2.03
2018-09-03T02:06:03.034Z,2.00
2018-09-03T02:08:31.119Z,1.80
2018-09-03T02:10:59.570Z,2.67
2018-09-03T02:13:27.998Z,2.27
2018-09-03T02:15:56.067Z,2.60
2018-09-03T02:18:24.142Z,2.47
2018-09-03T02:20:52.602Z,1.87
2018-09-03T02:23:20.681Z,1.97
2018-09-03T02:25:48.863Z,1.93
2018-09-03T02:28:17.014Z,2.10
2018-09-03T02:30:45.078Z,2.57
2018-09-03T02:33:13.165Z,2.23
2018-09-03T02:35:41.262Z,2.03
2018-09-03T02:38:09.422Z,2.13
2018-09-03T02:40:37.506Z,1.80
2018-09-03T02:43:05.594Z,2.23
2018-09-03T02:45:33.658Z,2.30
2018-09-03T02:48:01.814Z,1.83
2018-09-03T02:50:29.874Z,2.40
2018-09-03T02:52:58.026Z,2.40
2018-09-03T02:55:26.108Z,2.10
2018-09-03T02:57:54.182Z,2.63
2018-09-03T03:00:27.045Z,2.60
2018-09-03T03:02:56.550Z,2.10
2018-09-03T03:05:24.694Z,1.90
2018-09-03T03:07:52.770Z,2.20
2018-09-03T03:10:20.898Z,2.20
2018-09-03T03:12:49.014Z,2.43
2018-09-03T03:15:17.617Z,1.90
2018-09-03T03:17:45.674Z,2.43
2018-09-03T03:20:13.786Z,1.97
2018-09-03T03:22:41.874Z,2.07
2018-09-03T03:25:09.963Z,2.47
2018-09-03T03:27:38.052Z,1.90
2018-09-03T03:30:07.533Z,2.33
2018-09-03T03:32:35.644Z,1.70
2018-09-03T03:35:03.710Z,2.00
2018-09-03T03:37:31.781Z,2.00
2018-09-03T03:39:59.838Z,2.10
2018-09-03T03:42:27.983Z,2.03
2018-09-03T03:44:56.047Z,2.07
2018-09-03T03:47:24.117Z,2.23
2018-09-03T03:49:52.202Z,2.00
2018-09-03T03:52:20.309Z,2.07
2018-09-03T03:54:48.372Z,2.10
2018-09-03T03:57:16.422Z,2.60
2018-09-03T03:59:44.506Z,2.17
2018-09-03T04:02:12.572Z,2.40
2018-09-03T04:04:40.904Z,2.40
2018-09-03T04:07:08.981Z,2.10
2018-09-03T04:09:37.088Z,2.13
2018-09-03T04:12:05.221Z,2.00
2018-09-03T04:14:33.282Z,2.27
2018-09-03T04:17:01.383Z,2.40
2018-09-03T04:19:29.467Z,1.93
2018-09-03T04:21:57.573Z,2.10
2018-09-03T04:24:25.690Z,2.40
2018-09-03T04:26:53.766Z,2.10
2018-09-03T04:29:21.830Z,2.40
2018-09-03T04:31:49.945Z,2.10
2018-09-03T04:34:18.018Z,2.23
2018-09-03T04:36:46.087Z,2.40
2018-09-03T04:39:14.174Z,2.30
2018-09-03T04:41:42.278Z,2.40
2018-09-03T04:44:10.339Z,2.10
2018-09-03T04:46:38.470Z,2.00
2018-09-03T04:49:06.564Z,2.53
2018-09-03T04:51:34.618Z,2.47
2018-09-03T04:54:02.686Z,2.10
2018-09-03T04:56:30.759Z,1.80
2018-09-03T04:58:58.832Z,1.83
2018-09-03T05:01:26.894Z,2.07
2018-09-03T05:03:54.970Z,2.10
2018-09-03T05:06:23.090Z,2.17
2018-09-03T05:08:51.218Z,2.30
2018-09-03T05:11:19.360Z,2.00
2018-09-03T05:13:47.551Z,1.98
2018-09-03T05:16:15.626Z,2.57
2018-09-03T05:18:43.710Z,2.30
2018-09-03T05:21:11.786Z,2.60
2018-09-03T05:23:39.870Z,2.17
2018-09-03T05:26:07.955Z,2.30
2018-09-03T05:28:36.026Z,2.47
2018-09-03T05:31:04.180Z,2.37
2018-09-03T05:33:32.231Z,2.40
2018-09-03T05:36:00.362Z,2.67
2018-09-03T05:38:28.507Z,2.27
2018-09-03T05:40:56.553Z,2.03
2018-09-03T05:43:24.779Z,2.57
2018-09-03T05:45:52.769Z,2.50
2018-09-03T05:48:20.932Z,2.40
2018-09-03T05:50:48.988Z,2.33
2018-09-03T05:53:17.070Z,2.17
2018-09-03T05:55:45.169Z,2.37
2018-09-03T05:58:13.454Z,2.03
2018-09-03T06:00:41.597Z,2.50
2018-09-03T06:03:09.848Z,2.23
2018-09-03T06:05:37.919Z,1.77
2018-09-03T06:08:06.557Z,2.00
2018-09-03T06:10:34.801Z,2.10
2018-09-03T06:13:02.756Z,2.47
2018-09-03T06:15:30.866Z,2.40
2018-09-03T06:17:58.945Z,2.37
2018-09-03T06:20:27.036Z,2.30
2018-09-03T06:22:55.107Z,2.07
2018-09-03T06:25:23.201Z,2.97
2018-09-03T06:27:51.282Z,2.07
2018-09-03T06:30:19.351Z,2.87
2018-09-03T06:32:47.451Z,2.00
2018-09-03T06:35:15.531Z,2.00
2018-09-03T06:37:43.598Z,2.07
2018-09-03T06:40:11.815Z,2.17
2018-09-03T06:42:39.910Z,2.30
2018-09-03T06:45:08.006Z,2.20
2018-09-03T06:47:36.070Z,1.97
2018-09-03T06:50:04.190Z,1.80
2018-09-03T06:52:32.279Z,2.10
2018-09-03T06:55:00.479Z,1.93
2018-09-03T06:57:28.594Z,2.10
2018-09-03T06:59:56.717Z,2.40
2018-09-03T07:02:24.794Z,1.90
2018-09-03T07:04:52.864Z,1.60
2018-09-03T07:07:20.970Z,2.13
2018-09-03T07:09:49.120Z,2.10
2018-09-03T07:12:17.250Z,2.00
2018-09-03T07:14:45.368Z,2.20
2018-09-03T07:17:13.474Z,2.23
2018-09-03T07:19:41.551Z,1.73
2018-09-03T07:22:09.626Z,2.30
2018-09-03T07:24:38.290Z,1.97
2018-09-03T07:27:06.372Z,2.10
2018-09-03T07:29:34.541Z,2.17
2018-09-03T07:32:02.656Z,2.10
2018-09-03T07:34:30.743Z,2.27
2018-09-03T07:36:58.855Z,2.40
2018-09-03T07:39:26.956Z,2.90
2018-09-03T07:41:55.014Z,2.20
2018-09-03T07:44:23.082Z,2.57
2018-09-03T07:46:51.159Z,2.37
2018-09-03T07:49:19.322Z,2.60
2018-09-03T07:51:47.459Z,2.47
2018-09-03T07:54:15.569Z,3.00
2018-09-03T07:56:43.638Z,2.47
2018-09-03T07:59:11.722Z,2.60
2018-09-03T08:01:39.814Z,2.90
2018-09-03T08:04:08.122Z,3.33
2018-09-03T08:06:36.357Z,3.20
2018-09-03T08:09:06.750Z,2.97
2018-09-03T08:11:35.239Z,3.30
2018-09-03T08:14:03.497Z,3.03
2018-09-03T08:16:31.565Z,3.80
2018-09-03T08:18:59.639Z,3.17
2018-09-03T08:21:27.746Z,3.80
2018-09-03T08:23:55.881Z,3.23
2018-09-03T08:26:23.992Z,2.93
2018-09-03T08:28:52.128Z,3.40
2018-09-03T08:31:20.183Z,3.67
2018-09-03T08:33:48.238Z,3.17
2018-09-03T08:36:16.322Z,4.03
2018-09-03T08:38:44.462Z,3.73
2018-09-03T08:41:12.562Z,3.67
2018-09-03T08:43:40.725Z,3.50
2018-09-03T08:46:08.838Z,3.30
2018-09-03T08:48:36.966Z,3.73
2018-09-03T08:51:05.159Z,4.30
2018-09-03T08:53:33.262Z,4.23
2018-09-03T08:56:01.414Z,3.73
2018-09-03T08:58:29.550Z,3.70
2018-09-03T09:00:57.674Z,3.07
2018-09-03T09:03:31.155Z,3.10
2018-09-03T09:05:59.323Z,3.17
2018-09-03T09:08:27.425Z,2.87
2018-09-03T09:10:55.540Z,2.60
2018-09-03T09:13:23.677Z,3.40
2018-09-03T09:15:51.790Z,2.57
2018-09-03T09:18:19.876Z,3.40
2018-09-03T09:20:48.008Z,2.80
2018-09-03T09:23:16.358Z,3.47
2018-09-03T09:25:44.445Z,3.40
2018-09-03T09:28:12.579Z,3.23
2018-09-03T09:30:40.682Z,3.10
2018-09-03T09:33:08.894Z,2.90
2018-09-03T09:35:37.058Z,3.17
2018-09-03T09:38:05.188Z,3.00
2018-09-03T09:40:33.330Z,2.93
2018-09-03T09:43:01.516Z,2.87
2018-09-03T09:45:29.567Z,3.07
2018-09-03T09:47:57.680Z,2.60
2018-09-03T09:50:25.920Z,2.67
2018-09-03T09:52:54.233Z,3.17
2018-09-03T09:55:22.311Z,2.77
2018-09-03T09:57:50.443Z,2.77
2018-09-03T10:00:24.056Z,2.70
2018-09-03T10:02:52.166Z,2.90
2018-09-03T10:05:20.244Z,3.00
2018-09-03T10:07:48.351Z,3.00
2018-09-03T10:10:16.602Z,3.00
2018-09-03T10:12:44.675Z,3.10
2018-09-03T10:15:12.846Z,3.00
2018-09-03T10:17:41.041Z,2.87
2018-09-03T10:20:09.155Z,2.73
2018-09-03T10:22:37.265Z,2.90
2018-09-03T10:25:05.427Z,2.60
2018-09-03T10:27:33.596Z,3.40
2018-09-03T10:30:01.707Z,2.60
2018-09-03T10:32:30.840Z,2.27
2018-09-03T10:34:58.982Z,2.90
2018-09-03T10:37:27.078Z,2.77
2018-09-03T10:39:55.155Z,2.37
2018-09-03T10:42:25.066Z,2.20
2018-09-03T10:44:54.239Z,2.60
2018-09-03T10:47:22.528Z,2.60
2018-09-03T10:49:50.739Z,2.47
2018-09-03T10:52:18.959Z,2.90
2018-09-03T10:54:47.234Z,2.73
2018-09-03T10:57:15.359Z,2.70
2018-09-03T10:59:43.501Z,2.63
2018-09-03T11:02:11.633Z,2.50
2018-09-03T11:04:39.751Z,2.33
2018-09-03T11:07:08.457Z,2.10
2018-09-03T11:09:36.698Z,2.57
2018-09-03T11:12:06.444Z,2.30
2018-09-03T11:14:34.606Z,2.57
2018-09-03T11:17:02.919Z,2.37
2018-09-03T11:19:33.181Z,2.40
2018-09-03T11:22:01.298Z,2.57
2018-09-03T11:24:29.411Z,2.63
2018-09-03T11:26:57.532Z,2.40
2018-09-03T11:29:25.607Z,2.53
2018-09-03T11:31:53.723Z,2.70
2018-09-03T11:34:21.843Z,2.50
2018-09-03T11:36:49.940Z,2.70
2018-09-03T11:39:18.065Z,2.63
2018-09-03T11:41:46.192Z,2.50
2018-09-03T11:49:08.673Z,2.87
2018-09-03T11:51:36.789Z,2.70
2018-09-03T11:54:04.923Z,2.10
2018-09-03T11:56:33.071Z,2.60
2018-09-03T11:59:01.187Z,2.53
2018-09-03T12:01:29.291Z,2.33
2018-09-03T12:03:57.463Z,2.50
2018-09-03T12:06:25.609Z,2.93
2018-09-03T12:08:53.718Z,2.80
2018-09-03T12:11:21.846Z,2.70
2018-09-03T12:13:49.975Z,2.90
2018-09-03T12:16:20.568Z,2.50
2018-09-03T12:18:48.674Z,2.60
2018-09-03T12:21:16.953Z,2.53
2018-09-03T12:23:45.182Z,2.53
2018-09-03T12:26:13.365Z,2.63
2018-09-03T12:28:41.484Z,2.73
2018-09-03T12:31:09.711Z,2.73
2018-09-03T12:33:37.782Z,2.93
2018-09-03T12:36:06.293Z,3.10
2018-09-03T12:38:34.576Z,2.90
2018-09-03T12:41:02.642Z,2.43
2018-09-03T12:43:30.831Z,2.67
2018-09-03T12:46:01.031Z,2.73
2018-09-03T12:48:29.856Z,2.27
2018-09-03T12:50:58.344Z,2.67
2018-09-03T12:53:26.431Z,2.90
2018-09-03T12:55:54.530Z,2.47
2018-09-03T12:58:22.652Z,2.60
2018-09-03T13:00:50.742Z,2.50
2018-09-03T13:03:18.854Z,2.80
2018-09-03T13:05:47.001Z,2.80
2018-09-03T13:08:15.395Z,2.73
2018-09-03T13:10:43.514Z,3.00
2018-09-03T13:13:11.676Z,3.27
2018-09-03T13:15:39.763Z,2.77
2018-09-03T13:18:07.889Z,3.20
2018-09-03T13:20:35.986Z,3.20
2018-09-03T13:23:04.066Z,2.80
2018-09-03T13:25:32.242Z,3.40
2018-09-03T13:28:00.346Z,2.67
2018-09-03T13:30:28.493Z,2.53
2018-09-03T13:32:56.696Z,2.67
2018-09-03T13:35:25.353Z,3.17
2018-09-03T13:37:53.422Z,2.80
2018-09-03T13:40:21.508Z,2.77
2018-09-03T13:42:49.658Z,3.13
2018-09-03T13:45:17.804Z,3.03
2018-09-03T13:47:45.892Z,2.93
2018-09-03T13:50:14.130Z,2.87
2018-09-03T13:52:42.451Z,2.80
2018-09-03T13:55:10.647Z,2.27
2018-09-03T13:57:38.713Z,3.00
2018-09-03T14:00:08.271Z,2.53
2018-09-03T14:02:36.499Z,2.97
2018-09-03T14:05:04.669Z,2.50
2018-09-03T14:07:32.990Z,2.50
2018-09-03T14:10:01.161Z,2.67
2018-09-03T14:12:29.278Z,2.23
2018-09-03T14:14:57.504Z,2.63
2018-09-03T14:17:26.854Z,2.53
2018-09-03T14:19:55.044Z,2.67
2018-09-03T14:22:23.131Z,2.90
2018-09-03T14:24:51.218Z,3.17
2018-09-03T14:27:19.312Z,3.03
2018-09-03T14:29:48.332Z,4.07
2018-09-03T14:32:17.491Z,3.60
2018-09-03T14:34:45.564Z,3.03
2018-09-03T14:37:13.678Z,3.07
2018-09-03T14:39:41.810Z,3.37
2018-09-03T14:42:09.916Z,3.37
2018-09-03T14:44:37.994Z,3.30
2018-09-03T14:47:06.069Z,3.07
2018-09-03T14:49:34.226Z,2.63
2018-09-03T14:52:02.285Z,3.80
2018-09-03T14:54:30.515Z,4.07
2018-09-03T14:56:58.590Z,3.60
2018-09-03T14:59:26.692Z,3.70
2018-09-03T15:01:54.795Z,4.23
2018-09-03T15:04:22.901Z,3.97
2018-09-03T15:06:51.025Z,3.67
2018-09-03T15:09:19.147Z,4.17
2018-09-03T15:11:47.325Z,4.13
2018-09-03T15:14:15.485Z,3.53
2018-09-03T15:16:43.552Z,3.47
2018-09-03T15:19:11.650Z,3.67
2018-09-03T15:21:39.754Z,4.17
2018-09-03T15:24:07.962Z,4.27
2018-09-03T15:26:36.172Z,3.83
2018-09-03T15:29:04.156Z,4.93
2018-09-03T15:31:32.255Z,6.73
2018-09-03T15:34:00.543Z,7.10
2018-09-03T15:36:28.824Z,8.57
2018-09-03T15:38:56.962Z,9.30
2018-09-03T15:41:25.197Z,9.00
2018-09-03T15:43:53.246Z,9.93
2018-09-03T15:46:21.446Z,8.93
2018-09-03T15:48:49.753Z,9.30
2018-09-03T15:51:17.973Z,9.50
2018-09-03T15:53:46.158Z,9.73
2018-09-03T15:56:14.340Z,10.10
2018-09-03T15:58:42.547Z,10.40
2018-09-03T16:01:10.626Z,10.83
2018-09-03T16:03:38.727Z,9.63
2018-09-03T16:06:06.953Z,10.37
2018-09-03T16:08:35.048Z,9.70
2018-09-03T16:11:03.594Z,9.60
2018-09-03T16:13:31.778Z,10.93
2018-09-03T16:15:59.849Z,9.93
2018-09-03T16:18:27.970Z,9.60
2018-09-03T16:20:56.131Z,9.40
2018-09-03T16:23:24.231Z,9.43
2018-09-03T16:25:52.329Z,9.13
2018-09-03T16:28:20.522Z,9.20
2018-09-03T16:30:48.634Z,9.47
2018-09-03T16:33:16.745Z,8.97
2018-09-03T16:35:44.863Z,9.10
2018-09-03T16:38:12.975Z,8.13
2018-09-03T16:40:41.132Z,8.97
2018-09-03T16:43:09.308Z,8.63
2018-09-03T16:45:37.514Z,8.77
2018-09-03T16:48:05.637Z,7.93
2018-09-03T16:50:33.755Z,8.10
2018-09-03T16:53:01.891Z,8.30
2018-09-03T16:55:30.150Z,7.40
2018-09-03T16:57:58.303Z,7.47
2018-09-03T17:00:26.427Z,6.83
2018-09-03T17:02:54.520Z,8.13
2018-09-03T17:05:22.783Z,7.87
2018-09-03T17:07:51.036Z,7.37
2018-09-03T17:10:19.046Z,7.43
2018-09-03T17:12:47.180Z,8.73
2018-09-03T17:15:15.551Z,8.10
2018-09-03T17:17:43.722Z,7.93
2018-09-03T17:20:11.829Z,8.27
2018-09-03T17:22:39.884Z,7.93
2018-09-03T17:25:07.962Z,8.13
2018-09-03T17:27:36.074Z,7.03
2018-09-03T17:30:04.187Z,6.83
2018-09-03T17:32:32.309Z,8.33
2018-09-03T17:35:00.426Z,8.27
2018-09-03T17:37:28.623Z,6.97
2018-09-03T17:39:57.631Z,8.87
2018-09-03T17:42:25.725Z,8.13
2018-09-03T17:44:53.791Z,8.63
2018-09-03T17:47:21.870Z,7.50
2018-09-03T17:49:53.877Z,8.30
2018-09-03T17:52:21.995Z,8.03
2018-09-03T17:54:50.136Z,7.63
2018-09-03T17:57:18.244Z,7.10
2018-09-03T17:59:46.995Z,6.57
2018-09-03T18:02:15.095Z,6.83
2018-09-03T18:04:43.264Z,6.33
2018-09-03T18:07:11.354Z,6.43
2018-09-03T18:09:39.452Z,6.33
2018-09-03T18:12:07.547Z,5.83
2018-09-03T18:14:35.707Z,5.53
2018-09-03T18:17:03.919Z,5.10
2018-09-03T18:19:32.026Z,5.00
2018-09-03T18:22:00.130Z,5.53
2018-09-03T18:24:28.259Z,5.63
2018-09-03T18:26:56.383Z,5.00
2018-09-03T18:29:24.504Z,5.33
2018-09-03T18:31:52.578Z,4.77
2018-09-03T18:34:20.714Z,5.10
2018-09-03T18:36:49.076Z,5.83
2018-09-03T18:39:17.210Z,6.70
2018-09-03T18:41:45.336Z,6.47
2018-09-03T18:44:13.636Z,5.80
2018-09-03T18:46:41.746Z,6.47
2018-09-03T18:49:11.151Z,6.63
2018-09-03T18:51:40.374Z,5.83
2018-09-03T18:54:08.779Z,7.13
2018-09-03T18:56:37.141Z,6.10
2018-09-03T18:59:05.443Z,6.80
2018-09-03T19:01:33.562Z,6.47
2018-09-03T19:04:01.717Z,6.10
2018-09-03T19:06:29.818Z,6.97
2018-09-03T19:08:58.627Z,6.33
2018-09-03T19:11:26.839Z,7.70
2018-09-03T19:13:55.001Z,8.33
2018-09-03T19:16:23.121Z,7.53
2018-09-03T19:18:51.467Z,7.10
2018-09-03T19:21:19.626Z,7.00
2018-09-03T19:23:47.736Z,8.30
2018-09-03T19:26:15.898Z,7.90
2018-09-03T19:28:44.519Z,7.80
2018-09-03T19:31:12.658Z,7.57
2018-09-03T19:33:40.955Z,8.93
2018-09-03T19:36:09.106Z,7.70
2018-09-03T19:38:37.283Z,7.90
2018-09-03T19:41:05.474Z,8.50
2018-09-03T19:43:33.595Z,8.70
2018-09-03T19:46:01.805Z,7.97
2018-09-03T19:48:30.029Z,8.27
2018-09-03T19:50:58.095Z,7.73
2018-09-03T19:53:26.267Z,8.03
2018-09-03T19:55:54.435Z,7.77
2018-09-03T19:58:22.583Z,7.23
2018-09-03T20:00:50.771Z,7.10
2018-09-03T20:03:18.903Z,7.67
2018-09-03T20:05:47.108Z,7.50
2018-09-03T20:08:15.287Z,7.40
2018-09-03T20:10:43.515Z,7.80
2018-09-03T20:13:11.669Z,7.60
2018-09-03T20:15:39.758Z,6.97
2018-09-03T20:18:07.927Z,7.07
2018-09-03T20:20:36.050Z,6.23
2018-09-03T20:23:04.364Z,6.80
2018-09-03T20:25:32.435Z,6.10
2018-09-03T20:28:00.589Z,6.20
2018-09-03T20:30:28.754Z,5.93
2018-09-03T20:32:56.842Z,5.27
2018-09-03T20:35:24.966Z,5.20
2018-09-03T20:37:53.218Z,4.73
2018-09-03T20:40:21.426Z,5.07
2018-09-03T20:42:49.543Z,4.83
2018-09-03T20:45:17.566Z,4.63
2018-09-03T20:47:45.667Z,4.63
2018-09-03T20:50:13.801Z,4.83
2018-09-03T20:52:42.058Z,5.17
2018-09-03T20:55:11.274Z,5.03
2018-09-03T20:57:39.394Z,5.10
2018-09-03T21:00:07.802Z,6.27
2018-09-03T21:02:35.906Z,5.57
2018-09-03T21:05:04.036Z,4.67
2018-09-03T21:07:32.102Z,5.47
2018-09-03T21:10:00.288Z,5.13
2018-09-03T21:12:28.466Z,4.33
2018-09-03T21:14:56.546Z,4.57
2018-09-03T21:17:24.666Z,4.93
2018-09-03T21:19:52.747Z,4.73
2018-09-03T21:22:20.843Z,4.83
2018-09-03T21:24:48.938Z,4.23
2018-09-03T21:27:17.023Z,4.47
2018-09-03T21:29:45.146Z,4.60
2018-09-03T21:32:13.366Z,4.70
2018-09-03T21:34:41.513Z,4.50
2018-09-03T21:37:09.714Z,4.47
2018-09-03T21:39:37.823Z,4.57
2018-09-03T21:42:06.441Z,5.10
2018-09-03T21:44:34.627Z,4.17
2018-09-03T21:47:02.980Z,5.17
2018-09-03T21:49:31.162Z,4.67
2018-09-03T21:51:59.330Z,4.10
2018-09-03T21:54:27.402Z,4.60
2018-09-03T21:56:55.530Z,4.67
2018-09-03T21:59:23.594Z,4.43
2018-09-03T22:01:52.366Z,4.23
2018-09-03T22:04:20.446Z,4.97
2018-09-03T22:06:48.509Z,4.77
2018-09-03T22:09:16.620Z,4.70
2018-09-03T22:11:44.692Z,4.60
2018-09-03T22:14:12.806Z,4.13
2018-09-03T22:16:40.908Z,4.40
2018-09-03T22:19:08.993Z,4.90
2018-09-03T22:21:37.166Z,4.30
2018-09-03T22:24:05.279Z,4.07
2018-09-03T22:26:33.394Z,4.40
2018-09-03T22:29:01.498Z,4.13
2018-09-03T22:31:29.582Z,4.33
2018-09-03T22:33:57.684Z,4.67
2018-09-03T22:36:25.847Z,5.00
2018-09-03T22:38:53.926Z,5.10
2018-09-03T22:41:22.038Z,5.13
2018-09-03T22:43:50.150Z,4.97
2018-09-03T22:46:18.245Z,4.97
2018-09-03T22:48:46.414Z,4.63
2018-09-03T22:51:14.503Z,4.13
2018-09-03T22:53:42.683Z,4.90
2018-09-03T22:56:10.826Z,5.17
2018-09-03T22:58:38.901Z,4.50
2018-09-03T23:01:07.019Z,4.97
2018-09-03T23:03:35.162Z,4.30
2018-09-03T23:06:03.230Z,5.17
2018-09-03T23:08:31.362Z,5.10
2018-09-03T23:10:59.530Z,4.17
2018-09-03T23:13:27.650Z,5.20
2018-09-03T23:15:55.802Z,4.90
2018-09-03T23:18:24.360Z,4.30
2018-09-03T23:20:52.719Z,4.67
2018-09-03T23:23:20.919Z,5.20
2018-09-03T23:25:48.995Z,4.57
2018-09-03T23:28:17.091Z,5.33
2018-09-03T23:30:45.167Z,4.83
2018-09-03T23:33:13.258Z,4.50
2018-09-03T23:35:41.335Z,5.03
2018-09-03T23:38:09.406Z,4.33
2018-09-03T23:40:37.554Z,4.90
2018-09-03T23:43:05.657Z,5.60
2018-09-03T23:45:33.729Z,4.27
2018-09-03T23:48:01.819Z,4.63
2018-09-03T23:50:29.961Z,5.47
2018-09-03T23:52:58.221Z,4.70
2018-09-03T23:55:26.557Z,4.87
2018-09-03T23:57:54.958Z,4.97
